createdAt,value
2023-04-08T00:00:31.922Z,71.1917
2023-04-08T00:01:34.224Z,71.1916
2023-04-08T00:02:36.649Z,71.1858
2023-04-08T00:03:37.503Z,71.1782
2023-04-08T00:04:37.985Z,71.1691
2023-04-08T00:05:38.424Z,71.1638
2023-04-08T00:06:40.675Z,71.1999
2023-04-08T00:07:42.964Z,71.2758
2023-04-08T00:08:45.235Z,71.3353
2023-04-08T00:09:47.460Z,71.4026
2023-04-08T00:10:49.886Z,71.4733
2023-04-08T00:11:50.884Z,71.5289
2023-04-08T00:12:53.223Z,71.5697
2023-04-08T00:13:55.591Z,71.6172
2023-04-08T00:14:57.903Z,71.6481
2023-04-08T00:16:00.265Z,71.6963
2023-04-08T00:17:02.552Z,71.7627
2023-04-08T00:18:03.758Z,71.8383
2023-04-08T00:19:06.090Z,71.8934
2023-04-08T00:20:08.443Z,71.9501
2023-04-08T00:21:10.713Z,71.9849
2023-04-08T00:22:13.045Z,72.0185
2023-04-08T00:23:15.320Z,72.0452
2023-04-08T00:24:17.581Z,72.0579
2023-04-08T00:25:19.925Z,72.0567
2023-04-08T00:26:22.181Z,72.0391
2023-04-08T00:27:24.446Z,72.0283
2023-04-08T00:28:26.695Z,72.0297
2023-04-08T00:29:28.939Z,72.0331
2023-04-08T00:30:31.388Z,72.0297
2023-04-08T00:31:33.712Z,72.0311
2023-04-08T00:32:36.029Z,72.0303
2023-04-08T00:33:38.287Z,72.0167
2023-04-08T00:34:40.562Z,71.9970
2023-04-08T00:35:42.827Z,71.9752
2023-04-08T00:36:45.064Z,71.9552
2023-04-08T00:37:47.380Z,71.9363
2023-04-08T00:38:49.840Z,71.9318
2023-04-08T00:39:50.585Z,71.9408
2023-04-08T00:40:52.882Z,71.9389
2023-04-08T00:41:55.282Z,71.9167
2023-04-08T00:42:57.587Z,71.8941
2023-04-08T00:43:59.913Z,71.8725
2023-04-08T00:45:02.186Z,71.8628
2023-04-08T00:46:04.487Z,71.8593
2023-04-08T00:47:06.747Z,71.8588
2023-04-08T00:48:09.065Z,71.8652
2023-04-08T00:49:11.417Z,71.8745
2023-04-08T00:50:13.725Z,71.8759
2023-04-08T00:51:16.074Z,71.8872
2023-04-08T00:52:18.414Z,71.8927
2023-04-08T00:53:20.808Z,71.9034
2023-04-08T00:54:23.241Z,71.9251
2023-04-08T00:55:25.621Z,71.9699
2023-04-08T00:56:27.963Z,72.0515
2023-04-08T00:57:30.332Z,72.0894
2023-04-08T00:58:32.682Z,72.1273
2023-04-08T00:59:34.948Z,72.1556
2023-04-08T01:00:37.266Z,72.1524
2023-04-08T01:01:39.668Z,72.1440
2023-04-08T01:02:40.197Z,72.1362
2023-04-08T01:03:40.841Z,72.1256
2023-04-08T01:04:41.145Z,72.1062
2023-04-08T01:05:43.457Z,72.0894
2023-04-08T01:06:45.810Z,72.0723
2023-04-08T01:07:48.166Z,72.0551
2023-04-08T01:08:50.683Z,72.0347
2023-04-08T01:09:51.392Z,72.0150
2023-04-08T01:10:53.705Z,71.9901
2023-04-08T01:11:56.098Z,71.9651
2023-04-08T01:12:58.575Z,71.9418
2023-04-08T01:13:58.625Z,71.9141
2023-04-08T01:15:00.950Z,71.8956
2023-04-08T01:16:03.381Z,71.8658
2023-04-08T01:17:05.755Z,71.8463
2023-04-08T01:18:08.074Z,71.8254
2023-04-08T01:19:10.487Z,71.8153
2023-04-08T01:20:12.948Z,71.8087
2023-04-08T01:21:15.221Z,71.7963
2023-04-08T01:22:17.624Z,71.7818
2023-04-08T01:23:19.977Z,71.7700
2023-04-08T01:24:22.319Z,71.7610
2023-04-08T01:25:24.715Z,71.7558
2023-04-08T01:26:27.090Z,71.7497
2023-04-08T01:27:29.365Z,71.7402
2023-04-08T01:28:31.754Z,71.7285
2023-04-08T01:29:34.073Z,71.7150
2023-04-08T01:30:36.367Z,71.6994
2023-04-08T01:31:38.743Z,71.6845
2023-04-08T01:32:39.007Z,71.6682
2023-04-08T01:33:41.356Z,71.6677
2023-04-08T01:34:43.714Z,71.6849
2023-04-08T01:35:46.073Z,71.7069
2023-04-08T01:36:46.302Z,71.7315
2023-04-08T01:37:48.656Z,71.7544
2023-04-08T01:38:51.265Z,71.7747
2023-04-08T01:39:51.786Z,71.7844
2023-04-08T01:40:54.138Z,71.7843
2023-04-08T01:41:56.482Z,71.7895
2023-04-08T01:42:58.772Z,71.7822
2023-04-08T01:44:01.155Z,71.7707
2023-04-08T01:45:03.453Z,71.7510
2023-04-08T01:46:05.751Z,71.7341
2023-04-08T01:47:08.192Z,71.7321
2023-04-08T01:48:08.276Z,71.7381
2023-04-08T01:49:10.700Z,71.7481
2023-04-08T01:50:11.741Z,71.7642
2023-04-08T01:51:14.066Z,71.7769
2023-04-08T01:52:16.395Z,71.7876
2023-04-08T01:53:18.774Z,71.7891
2023-04-08T01:54:21.111Z,71.7833
2023-04-08T01:55:23.418Z,71.7735
2023-04-08T01:56:25.755Z,71.7586
2023-04-08T01:57:28.103Z,71.7460
2023-04-08T01:58:30.480Z,71.7342
2023-04-08T01:59:32.826Z,71.7170
2023-04-08T02:00:35.173Z,71.7049
2023-04-08T02:01:37.653Z,71.6977
2023-04-08T02:02:38.520Z,71.6917
2023-04-08T02:03:39.149Z,71.6832
2023-04-08T02:04:39.467Z,71.6749
2023-04-08T02:05:39.623Z,71.6647
2023-04-08T02:06:39.911Z,71.6690
2023-04-08T02:07:42.275Z,71.6682
2023-04-08T02:08:44.639Z,71.6731
2023-04-08T02:09:47.000Z,71.6859
2023-04-08T02:10:49.362Z,71.6917
2023-04-08T02:11:51.783Z,71.7039
2023-04-08T02:12:54.125Z,71.7128
2023-04-08T02:13:56.460Z,71.7231
2023-04-08T02:14:58.775Z,71.7319
2023-04-08T02:16:01.117Z,71.7364
2023-04-08T02:17:01.307Z,71.7357
2023-04-08T02:18:03.707Z,71.7331
2023-04-08T02:19:03.876Z,71.7389
2023-04-08T02:20:06.163Z,71.7489
2023-04-08T02:21:08.481Z,71.7593
2023-04-08T02:22:11.064Z,71.7650
2023-04-08T02:23:13.400Z,71.7717
2023-04-08T02:24:15.757Z,71.7801
2023-04-08T02:25:18.077Z,71.7827
2023-04-08T02:26:20.375Z,71.7866
2023-04-08T02:27:22.818Z,71.7883
2023-04-08T02:28:25.209Z,71.7907
2023-04-08T02:29:27.579Z,71.7945
2023-04-08T02:30:30.003Z,71.8082
2023-04-08T02:31:32.346Z,71.8302
2023-04-08T02:32:34.688Z,71.8477
2023-04-08T02:33:37.040Z,71.8587
2023-04-08T02:34:39.417Z,71.8613
2023-04-08T02:35:41.805Z,71.8628
2023-04-08T02:36:44.121Z,71.8603
2023-04-08T02:37:46.455Z,71.8529
2023-04-08T02:38:49.159Z,71.8441
2023-04-08T02:39:49.739Z,71.8374
2023-04-08T02:40:52.045Z,71.8255
2023-04-08T02:41:54.389Z,71.8088
2023-04-08T02:42:56.731Z,71.7927
2023-04-08T02:43:59.094Z,71.7786
2023-04-08T02:45:01.494Z,71.7624
2023-04-08T02:46:04.075Z,71.7507
2023-04-08T02:47:04.605Z,71.7384
2023-04-08T02:48:06.981Z,71.7276
2023-04-08T02:49:09.328Z,71.7166
2023-04-08T02:50:11.679Z,71.7119
2023-04-08T02:51:13.979Z,71.7096
2023-04-08T02:52:16.303Z,71.7059
2023-04-08T02:53:18.630Z,71.6963
2023-04-08T02:54:21.077Z,71.6944
2023-04-08T02:55:21.196Z,71.6912
2023-04-08T02:56:21.340Z,71.6848
2023-04-08T02:57:23.708Z,71.6759
2023-04-08T02:58:26.126Z,71.6726
2023-04-08T02:59:28.473Z,71.6615
2023-04-08T03:00:30.811Z,71.6504
2023-04-08T03:01:33.230Z,71.6359
2023-04-08T03:02:33.858Z,71.6267
2023-04-08T03:03:34.223Z,71.6185
2023-04-08T03:04:34.543Z,71.6121
2023-04-08T03:05:36.815Z,71.6055
2023-04-08T03:06:39.124Z,71.5941
2023-04-08T03:07:41.463Z,71.5891
2023-04-08T03:08:43.816Z,71.5844
2023-04-08T03:09:46.117Z,71.5817
2023-04-08T03:10:48.411Z,71.5778
2023-04-08T03:11:50.740Z,71.5672
2023-04-08T03:12:53.020Z,71.5615
2023-04-08T03:13:55.489Z,71.5644
2023-04-08T03:14:57.792Z,71.5606
2023-04-08T03:16:00.123Z,71.5588
2023-04-08T03:17:02.528Z,71.5601
2023-04-08T03:18:02.995Z,71.5623
2023-04-08T03:19:05.374Z,71.5628
2023-04-08T03:20:07.787Z,71.5648
2023-04-08T03:21:10.201Z,71.5702
2023-04-08T03:22:12.574Z,71.5691
2023-04-08T03:23:14.999Z,71.5686
2023-04-08T03:24:17.372Z,71.5703
2023-04-08T03:25:19.772Z,71.5759
2023-04-08T03:26:22.089Z,71.5897
2023-04-08T03:27:24.409Z,71.5999
2023-04-08T03:28:26.799Z,71.6058
2023-04-08T03:29:27.145Z,71.6125
2023-04-08T03:30:27.390Z,71.6198
2023-04-08T03:31:29.873Z,71.6208
2023-04-08T03:32:32.305Z,71.6312
2023-04-08T03:33:34.639Z,71.6436
2023-04-08T03:34:37.032Z,71.6568
2023-04-08T03:35:39.423Z,71.6714
2023-04-08T03:36:41.777Z,71.6820
2023-04-08T03:37:44.072Z,71.6916
2023-04-08T03:38:46.479Z,71.7008
2023-04-08T03:39:48.795Z,71.7120
2023-04-08T03:40:51.114Z,71.7148
2023-04-08T03:41:53.503Z,71.7186
2023-04-08T03:42:55.846Z,71.7186
2023-04-08T03:43:58.271Z,71.7210
2023-04-08T03:45:00.611Z,71.7228
2023-04-08T03:46:03.003Z,71.7272
2023-04-08T03:47:05.337Z,71.7311
2023-04-08T03:48:07.768Z,71.7318
2023-04-08T03:49:08.103Z,71.7342
2023-04-08T03:50:10.448Z,71.7368
2023-04-08T03:51:12.849Z,71.7427
2023-04-08T03:52:15.215Z,71.7485
2023-04-08T03:53:17.621Z,71.7483
2023-04-08T03:54:20.064Z,71.7524
2023-04-08T03:55:22.434Z,71.7591
2023-04-08T03:56:24.847Z,71.7718
2023-04-08T03:57:27.159Z,71.7869
2023-04-08T03:58:29.462Z,71.7976
2023-04-08T03:59:31.861Z,71.8077
2023-04-08T04:00:34.176Z,71.8198
2023-04-08T04:01:36.512Z,71.8321
2023-04-08T04:02:39.140Z,71.8426
2023-04-08T04:03:39.903Z,71.8514
2023-04-08T04:04:40.180Z,71.8574
2023-04-08T04:05:42.562Z,71.8694
2023-04-08T04:06:44.885Z,71.8906
2023-04-08T04:07:47.250Z,71.9227
2023-04-08T04:08:49.666Z,71.9523
2023-04-08T04:09:50.002Z,71.9824
2023-04-08T04:10:52.363Z,72.0044
2023-04-08T04:11:54.696Z,72.0284
2023-04-08T04:12:57.026Z,72.0512
2023-04-08T04:13:59.333Z,72.0736
2023-04-08T04:15:01.720Z,72.0943
2023-04-08T04:16:04.112Z,72.1125
2023-04-08T04:17:06.501Z,72.1312
2023-04-08T04:18:08.997Z,72.1372
2023-04-08T04:19:09.638Z,72.1445
2023-04-08T04:20:11.960Z,72.1580
2023-04-08T04:21:14.317Z,72.1689
2023-04-08T04:22:16.675Z,72.1865
2023-04-08T04:23:18.969Z,72.1972
2023-04-08T04:24:21.269Z,72.2154
2023-04-08T04:25:23.606Z,72.2304
2023-04-08T04:26:25.930Z,72.2477
2023-04-08T04:27:28.275Z,72.2658
2023-04-08T04:28:30.583Z,72.2822
2023-04-08T04:29:32.922Z,72.2961
2023-04-08T04:30:35.235Z,72.3140
2023-04-08T04:31:37.786Z,72.3261
2023-04-08T04:32:37.918Z,72.3320
2023-04-08T04:33:40.241Z,72.3370
2023-04-08T04:34:42.611Z,72.3424
2023-04-08T04:35:44.949Z,72.3456
2023-04-08T04:36:47.259Z,72.3454
2023-04-08T04:37:49.581Z,72.3555
2023-04-08T04:38:52.321Z,72.3667
2023-04-08T04:39:53.181Z,72.3795
2023-04-08T04:40:55.510Z,72.3847
2023-04-08T04:41:57.810Z,72.3893
2023-04-08T04:43:00.129Z,72.3934
2023-04-08T04:44:02.459Z,72.3924
2023-04-08T04:45:04.766Z,72.3942
2023-04-08T04:46:07.177Z,72.3999
2023-04-08T04:47:07.284Z,72.4066
2023-04-08T04:48:09.581Z,72.4252
2023-04-08T04:49:11.912Z,72.4415
2023-04-08T04:50:14.241Z,72.4539
2023-04-08T04:51:16.562Z,72.4683
2023-04-08T04:52:18.930Z,72.4879
2023-04-08T04:53:21.270Z,72.5183
2023-04-08T04:54:23.622Z,72.5461
2023-04-08T04:55:25.987Z,72.5632
2023-04-08T04:56:28.234Z,72.5802
2023-04-08T04:57:30.584Z,72.6045
2023-04-08T04:58:31.707Z,72.6295
2023-04-08T04:59:34.074Z,72.6551
2023-04-08T05:00:36.383Z,72.6899
2023-04-08T05:01:38.838Z,72.7217
2023-04-08T05:02:39.120Z,72.7480
2023-04-08T05:03:39.508Z,72.7726
2023-04-08T05:04:41.957Z,72.8073
2023-04-08T05:05:44.379Z,72.8356
2023-04-08T05:06:46.761Z,72.8705
2023-04-08T05:07:49.078Z,72.8996
2023-04-08T05:08:51.628Z,72.9235
2023-04-08T05:09:52.282Z,72.9638
2023-04-08T05:10:54.606Z,72.9928
2023-04-08T05:11:57.006Z,73.0348
2023-04-08T05:12:59.370Z,73.1061
2023-04-08T05:14:01.712Z,73.1687
2023-04-08T05:15:04.041Z,73.2124
2023-04-08T05:16:06.410Z,73.2405
2023-04-08T05:17:08.764Z,73.2783
2023-04-08T05:18:11.101Z,73.3032
2023-04-08T05:19:13.485Z,73.3172
2023-04-08T05:20:17.542Z,73.3382
2023-04-08T05:21:17.843Z,73.3653
2023-04-08T05:22:20.206Z,73.3803
2023-04-08T05:23:22.541Z,73.4031
2023-04-08T05:24:24.871Z,73.4147
2023-04-08T05:25:27.217Z,73.4118
2023-04-08T05:26:29.490Z,73.4160
2023-04-08T05:27:31.857Z,73.4162
2023-04-08T05:28:34.163Z,73.4221
2023-04-08T05:29:35.261Z,73.4263
2023-04-08T05:30:37.623Z,73.4206
2023-04-08T05:31:40.084Z,73.4216
2023-04-08T05:32:42.455Z,73.4197
2023-04-08T05:33:44.917Z,73.4193
2023-04-08T05:34:47.286Z,73.4174
2023-04-08T05:35:49.777Z,73.4213
2023-04-08T05:36:49.938Z,73.4248
2023-04-08T05:37:52.392Z,73.4255
2023-04-08T05:38:54.782Z,73.4241
2023-04-08T05:39:57.183Z,73.4245
2023-04-08T05:40:59.581Z,73.4197
2023-04-08T05:42:02.035Z,73.4212
2023-04-08T05:43:04.407Z,73.4205
2023-04-08T05:44:06.798Z,73.4201
2023-04-08T05:45:09.206Z,73.4211
2023-04-08T05:46:11.606Z,73.4213
2023-04-08T05:47:13.980Z,73.4145
2023-04-08T05:48:16.444Z,73.4132
2023-04-08T05:49:18.805Z,73.4110
2023-04-08T05:50:21.205Z,73.4088
2023-04-08T05:51:23.614Z,73.4187
2023-04-08T05:52:26.006Z,73.4206
2023-04-08T05:53:28.411Z,73.4201
2023-04-08T05:54:30.759Z,73.4195
2023-04-08T05:55:33.140Z,73.4160
2023-04-08T05:56:35.575Z,73.4172
2023-04-08T05:57:35.743Z,73.4132
2023-04-08T05:58:38.220Z,73.4057
2023-04-08T05:59:38.382Z,73.4029
2023-04-08T06:00:40.779Z,73.4048
2023-04-08T06:01:40.966Z,73.3995
2023-04-08T06:02:43.508Z,73.4026
2023-04-08T06:03:44.492Z,73.4028
2023-04-08T06:04:45.214Z,73.4002
2023-04-08T06:05:46.105Z,73.4003
2023-04-08T06:06:48.462Z,73.4021
2023-04-08T06:07:50.877Z,73.4052
2023-04-08T06:08:53.331Z,73.4041
2023-04-08T06:09:55.656Z,73.4102
2023-04-08T06:10:58.093Z,73.4016
2023-04-08T06:11:58.254Z,73.4019
2023-04-08T06:13:00.686Z,73.3970
2023-04-08T06:14:03.095Z,73.3928
2023-04-08T06:15:05.586Z,73.3866
2023-04-08T06:16:05.832Z,73.3815
2023-04-08T06:17:06.026Z,73.3807
2023-04-08T06:18:08.232Z,73.3803
2023-04-08T06:19:08.792Z,73.3844
2023-04-08T06:20:09.139Z,73.3830
2023-04-08T06:21:11.615Z,73.3825
2023-04-08T06:22:11.775Z,73.3786
2023-04-08T06:23:12.896Z,73.3801
2023-04-08T06:24:15.225Z,73.3882
2023-04-08T06:25:17.698Z,73.4066
2023-04-08T06:26:20.045Z,73.4049
2023-04-08T06:27:22.437Z,73.3983
2023-04-08T06:28:24.833Z,73.3936
2023-04-08T06:29:27.233Z,73.3942
2023-04-08T06:30:29.655Z,73.4018
2023-04-08T06:31:32.053Z,73.3990
2023-04-08T06:32:34.531Z,73.3881
2023-04-08T06:33:36.869Z,73.3741
2023-04-08T06:34:39.263Z,73.3636
2023-04-08T06:35:41.732Z,73.3493
2023-04-08T06:36:41.901Z,73.3364
2023-04-08T06:37:42.264Z,73.3246
2023-04-08T06:38:44.622Z,73.3114
2023-04-08T06:39:46.992Z,73.2999
2023-04-08T06:40:49.450Z,73.2880
2023-04-08T06:41:49.582Z,73.2814
2023-04-08T06:42:51.998Z,73.2686
2023-04-08T06:43:52.253Z,73.2491
2023-04-08T06:44:52.387Z,73.2328
2023-04-08T06:45:54.769Z,73.2093
2023-04-08T06:46:57.209Z,73.1918
2023-04-08T06:47:59.649Z,73.1675
2023-04-08T06:48:59.827Z,73.1425
2023-04-08T06:50:02.224Z,73.1120
2023-04-08T06:51:04.702Z,73.0820
2023-04-08T06:52:04.886Z,73.0627
2023-04-08T06:53:07.309Z,73.0514
2023-04-08T06:54:09.725Z,73.0402
2023-04-08T06:55:12.126Z,73.0477
2023-04-08T06:56:14.537Z,73.0437
2023-04-08T06:57:14.631Z,73.0277
2023-04-08T06:58:17.001Z,73.0123
2023-04-08T06:59:19.417Z,72.9955
2023-04-08T07:00:21.797Z,72.9797
2023-04-08T07:01:24.324Z,72.9532
2023-04-08T07:02:24.549Z,72.9256
2023-04-08T07:03:25.223Z,72.8984
2023-04-08T07:04:25.494Z,72.8730
2023-04-08T07:05:25.734Z,72.8522
2023-04-08T07:06:25.866Z,72.8203
2023-04-08T07:07:28.268Z,72.7849
2023-04-08T07:08:30.661Z,72.7512
2023-04-08T07:09:32.972Z,72.7189
2023-04-08T07:10:35.371Z,72.6828
2023-04-08T07:11:37.778Z,72.6502
2023-04-08T07:12:38.021Z,72.6191
2023-04-08T07:13:40.373Z,72.5956
2023-04-08T07:14:42.812Z,72.5626
2023-04-08T07:15:43.909Z,72.5129
2023-04-08T07:16:46.331Z,72.4681
2023-04-08T07:17:46.619Z,72.4264
2023-04-08T07:18:46.744Z,72.3854
2023-04-08T07:19:49.089Z,72.3465
2023-04-08T07:20:51.505Z,72.3115
2023-04-08T07:21:53.884Z,72.2786
2023-04-08T07:22:54.002Z,72.2446
2023-04-08T07:23:56.408Z,72.2099
2023-04-08T07:24:58.739Z,72.1675
2023-04-08T07:26:01.100Z,72.1234
2023-04-08T07:27:03.500Z,72.0731
2023-04-08T07:28:03.655Z,72.0239
2023-04-08T07:29:03.802Z,71.9750
2023-04-08T07:30:06.212Z,71.9323
2023-04-08T07:31:08.615Z,71.8866
2023-04-08T07:32:08.779Z,71.8427
2023-04-08T07:33:11.263Z,71.7968
2023-04-08T07:34:11.357Z,71.7642
2023-04-08T07:35:13.707Z,71.7300
2023-04-08T07:36:16.103Z,71.7076
2023-04-08T07:37:18.464Z,71.6842
2023-04-08T07:38:18.676Z,71.6593
2023-04-08T07:39:20.972Z,71.6283
2023-04-08T07:40:23.414Z,71.5899
2023-04-08T07:41:25.837Z,71.5453
2023-04-08T07:42:27.001Z,71.5096
2023-04-08T07:43:27.128Z,71.4734
2023-04-08T07:44:29.483Z,71.4240
2023-04-08T07:45:31.893Z,71.3633
2023-04-08T07:46:34.366Z,71.3011
2023-04-08T07:47:34.716Z,71.2567
2023-04-08T07:48:37.068Z,71.2188
2023-04-08T07:49:39.507Z,71.1783
2023-04-08T07:51:08.480Z,71.1329
2023-04-08T07:51:42.331Z,71.0993
2023-04-08T07:52:43.460Z,71.0622
2023-04-08T07:53:43.630Z,71.0385
2023-04-08T07:54:46.038Z,71.0108
2023-04-08T07:55:46.334Z,70.9877
2023-04-08T07:56:46.662Z,70.9676
2023-04-08T07:57:47.045Z,70.9466
2023-04-08T07:58:47.438Z,70.9222
2023-04-08T07:59:47.668Z,70.8867
2023-04-08T08:00:50.009Z,70.8414
2023-04-08T08:01:52.409Z,70.7918
2023-04-08T08:02:52.836Z,70.7357
2023-04-08T08:03:53.908Z,70.6861
2023-04-08T08:04:53.533Z,70.6473
2023-04-08T08:05:53.636Z,70.5997
2023-04-08T08:06:55.899Z,70.5511
2023-04-08T08:07:58.281Z,70.4963
2023-04-08T08:09:00.718Z,70.4422
2023-04-08T08:10:00.747Z,70.3963
2023-04-08T08:11:03.139Z,70.3513
2023-04-08T08:12:03.247Z,70.3131
2023-04-08T08:13:05.622Z,70.2794
2023-04-08T08:14:05.844Z,70.2476
2023-04-08T08:15:08.195Z,70.2217
2023-04-08T08:16:08.413Z,70.1943
2023-04-08T08:17:08.972Z,70.1672
2023-04-08T08:18:11.563Z,70.1389
2023-04-08T08:19:11.722Z,70.1049
2023-04-08T08:20:14.112Z,70.0620
2023-04-08T08:21:16.487Z,70.0328
2023-04-08T08:22:18.848Z,69.9778
2023-04-08T08:23:21.130Z,69.8935
2023-04-08T08:24:23.568Z,69.8211
2023-04-08T08:25:26.447Z,69.7506
2023-04-08T08:26:26.736Z,69.6805
2023-04-08T08:27:29.090Z,69.5936
2023-04-08T08:28:31.539Z,69.4813
2023-04-08T08:29:33.883Z,69.3647
2023-04-08T08:30:36.181Z,69.2612
2023-04-08T08:31:38.609Z,69.1833
2023-04-08T08:32:38.702Z,69.1085
2023-04-08T08:33:38.846Z,69.0497
2023-04-08T08:34:41.186Z,68.9995
2023-04-08T08:35:43.527Z,68.8811
2023-04-08T08:36:43.620Z,68.7508
2023-04-08T08:37:46.130Z,68.6234
2023-04-08T08:38:48.476Z,68.4800
2023-04-08T08:39:50.765Z,68.3138
2023-04-08T08:40:53.094Z,68.1685
2023-04-08T08:41:55.434Z,68.0868
2023-04-08T08:42:57.826Z,68.0500
2023-04-08T08:44:00.189Z,67.8934
2023-04-08T08:45:02.520Z,67.7103
2023-04-08T08:46:02.917Z,67.5529
2023-04-08T08:47:05.362Z,67.3539
2023-04-08T08:48:05.408Z,67.1640
2023-04-08T08:49:07.808Z,67.0640
2023-04-08T08:50:10.137Z,66.9883
2023-04-08T08:51:12.628Z,66.8989
2023-04-08T08:52:12.695Z,66.8056
2023-04-08T08:53:15.056Z,66.6763
2023-04-08T08:54:17.402Z,66.5158
2023-04-08T08:55:36.148Z,66.3765
2023-04-08T08:56:20.154Z,66.2591
2023-04-08T08:57:22.543Z,66.1642
2023-04-08T08:58:24.885Z,66.0966
2023-04-08T08:59:27.243Z,66.0469
2023-04-08T09:00:29.622Z,66.0181
2023-04-08T09:01:31.963Z,65.9944
2023-04-08T09:02:32.763Z,65.9606
2023-04-08T09:03:33.958Z,65.8866
2023-04-08T09:04:34.497Z,65.7935
2023-04-08T09:05:35.017Z,65.6878
2023-04-08T09:06:35.655Z,65.5609
2023-04-08T09:07:38.029Z,65.4237
2023-04-08T09:08:40.342Z,65.2971
2023-04-08T09:09:43.520Z,65.1980
2023-04-08T09:10:45.822Z,65.1511
2023-04-08T09:11:48.140Z,65.1092
2023-04-08T09:12:50.515Z,65.0511
2023-04-08T09:13:52.951Z,64.9919
2023-04-08T09:14:53.986Z,64.9441
2023-04-08T09:15:54.106Z,64.9021
2023-04-08T09:16:54.259Z,64.8629
2023-04-08T09:17:54.676Z,64.8150
2023-04-08T09:18:54.751Z,64.6583
2023-04-08T09:19:57.095Z,64.4880
2023-04-08T09:20:57.329Z,64.4216
2023-04-08T09:21:57.345Z,64.3058
2023-04-08T09:22:59.731Z,64.1165
2023-04-08T09:24:02.108Z,64.0136
2023-04-08T09:25:04.402Z,63.9884
2023-04-08T09:26:06.716Z,63.9433
2023-04-08T09:27:09.056Z,63.8904
2023-04-08T09:28:11.385Z,63.8203
2023-04-08T09:29:25.607Z,63.7534
2023-04-08T09:30:14.219Z,63.7122
2023-04-08T09:31:16.609Z,63.6434
2023-04-08T09:32:18.927Z,63.5847
2023-04-08T09:33:21.431Z,63.5459
2023-04-08T09:34:21.483Z,63.5193
2023-04-08T09:35:23.816Z,63.4973
2023-04-08T09:36:26.121Z,63.4836
2023-04-08T09:37:28.443Z,63.4767
2023-04-08T09:38:30.789Z,63.4697
2023-04-08T09:39:33.138Z,63.4601
2023-04-08T09:40:35.459Z,63.4538
2023-04-08T09:41:37.763Z,63.4243
2023-04-08T09:42:40.126Z,63.4013
2023-04-08T09:43:42.504Z,63.3818
2023-04-08T09:44:44.907Z,63.3667
2023-04-08T09:45:44.982Z,63.3426
2023-04-08T09:46:45.070Z,63.3096
2023-04-08T09:47:47.449Z,63.2303
2023-04-08T09:48:49.762Z,63.1641
2023-04-08T09:49:52.083Z,63.1142
2023-04-08T09:50:54.408Z,63.0559
2023-04-08T09:51:56.726Z,63.0018
2023-04-08T09:52:59.106Z,62.9412
2023-04-08T09:54:01.395Z,62.8560
2023-04-08T09:55:03.722Z,62.7872
2023-04-08T09:56:06.075Z,62.6568
2023-04-08T09:57:08.408Z,62.5411
2023-04-08T09:58:10.739Z,62.4993
2023-04-08T09:59:13.068Z,62.4824
2023-04-08T10:00:15.373Z,62.4527
2023-04-08T10:01:17.714Z,62.4186
2023-04-08T10:02:20.134Z,62.3835
2023-04-08T10:03:20.738Z,62.2655
2023-04-08T10:04:21.498Z,61.9059
2023-04-08T10:05:21.773Z,61.8730
2023-04-08T10:06:24.207Z,61.8450
2023-04-08T10:07:26.580Z,61.7564
2023-04-08T10:08:28.978Z,61.7508
2023-04-08T10:09:31.314Z,61.7660
2023-04-08T10:10:33.694Z,61.7883
2023-04-08T10:11:33.863Z,61.7966
2023-04-08T10:12:34.046Z,61.7999
2023-04-08T10:13:34.305Z,61.8162
2023-04-08T10:14:34.378Z,61.8252
2023-04-08T10:15:36.819Z,61.8333
2023-04-08T10:16:39.236Z,61.8595
2023-04-08T10:17:39.462Z,61.8986
2023-04-08T10:18:39.602Z,61.9424
2023-04-08T10:19:42.076Z,61.9860
2023-04-08T10:20:42.202Z,62.0164
2023-04-08T10:21:44.548Z,62.0187
2023-04-08T10:22:46.905Z,61.9936
2023-04-08T10:23:49.405Z,61.9106
2023-04-08T10:24:50.159Z,61.8243
2023-04-08T10:25:52.497Z,61.7226
2023-04-08T10:26:52.687Z,61.5196
2023-04-08T10:27:55.012Z,61.1808
2023-04-08T10:28:57.406Z,60.9086
2023-04-08T10:29:59.753Z,60.6609
2023-04-08T10:31:02.031Z,60.3981
2023-04-08T10:32:04.501Z,60.2877
2023-04-08T10:33:04.605Z,60.2071
2023-04-08T10:34:04.752Z,60.0868
2023-04-08T10:35:04.848Z,59.9542
2023-04-08T10:36:05.019Z,59.7586
2023-04-08T10:37:05.043Z,59.5889
2023-04-08T10:38:07.395Z,59.4127
2023-04-08T10:39:07.466Z,59.2725
2023-04-08T10:40:09.799Z,58.8100
2023-04-08T10:41:12.149Z,56.8119
2023-04-08T10:42:12.244Z,56.1058
2023-04-08T10:43:12.323Z,56.2098
2023-04-08T10:44:14.635Z,56.3341
2023-04-08T10:45:17.014Z,56.3181
2023-04-08T10:46:17.160Z,55.7535
2023-04-08T10:47:17.468Z,55.3990
2023-04-08T10:48:19.751Z,55.4878
2023-04-08T10:49:22.178Z,54.7022
2023-04-08T10:50:24.521Z,54.1420
2023-04-08T10:51:24.621Z,54.1414
2023-04-08T10:52:27.007Z,54.4004
2023-04-08T10:53:27.161Z,54.5755
2023-04-08T10:54:29.508Z,54.7042
2023-04-08T10:55:31.799Z,54.8884
2023-04-08T10:56:34.165Z,55.0135
2023-04-08T10:57:36.483Z,55.1207
2023-04-08T10:58:38.844Z,55.0222
2023-04-08T10:59:41.203Z,54.8903
2023-04-08T11:00:43.544Z,54.9761
2023-04-08T11:01:45.998Z,55.0717
2023-04-08T11:02:46.325Z,55.1423
2023-04-08T11:03:46.953Z,55.2490
2023-04-08T11:04:47.583Z,55.3339
2023-04-08T11:05:49.960Z,55.3752
2023-04-08T11:06:52.246Z,55.3764
2023-04-08T11:07:52.412Z,55.3672
2023-04-08T11:08:54.755Z,55.3382
2023-04-08T11:09:54.836Z,55.2956
2023-04-08T11:10:57.169Z,55.2875
2023-04-08T11:11:59.510Z,55.2505
2023-04-08T11:13:01.969Z,55.0989
2023-04-08T11:14:02.014Z,54.9460
2023-04-08T11:15:04.338Z,54.8773
2023-04-08T11:16:17.251Z,54.8215
2023-04-08T11:17:07.066Z,54.7418
2023-04-08T11:18:07.194Z,54.6766
2023-04-08T11:19:07.450Z,54.5987
2023-04-08T11:20:07.519Z,54.5403
2023-04-08T11:21:07.617Z,54.4280
2023-04-08T11:22:07.774Z,54.2073
2023-04-08T11:23:07.818Z,53.9516
2023-04-08T11:24:10.114Z,53.7061
2023-04-08T11:25:10.273Z,53.4466
2023-04-08T11:26:10.264Z,53.2441
2023-04-08T11:27:10.324Z,53.0938
2023-04-08T11:28:12.731Z,53.0730
2023-04-08T11:29:15.038Z,53.0932
2023-04-08T11:30:15.122Z,52.9190
2023-04-08T11:31:15.205Z,52.5284
2023-04-08T11:32:15.489Z,52.2256
2023-04-08T11:33:15.569Z,51.8270
2023-04-08T11:34:17.814Z,50.3414
2023-04-08T11:35:20.152Z,47.8501
2023-04-08T11:36:22.451Z,47.2765
2023-04-08T11:37:26.574Z,47.8199
2023-04-08T11:38:27.257Z,48.3618
2023-04-08T11:39:29.642Z,48.7310
2023-04-08T11:40:29.683Z,48.9700
2023-04-08T11:41:32.003Z,49.0635
2023-04-08T11:42:32.103Z,49.0885
2023-04-08T11:43:32.153Z,49.1867
2023-04-08T11:44:32.205Z,49.3361
2023-04-08T11:45:32.225Z,49.4636
2023-04-08T11:46:34.539Z,49.5725
2023-04-08T11:47:34.965Z,49.6417
2023-04-08T11:48:35.219Z,49.7032
2023-04-08T11:49:35.234Z,49.5291
2023-04-08T11:50:35.274Z,49.3284
2023-04-08T11:51:35.351Z,49.0723
2023-04-08T11:52:35.353Z,48.9068
2023-04-08T11:53:37.735Z,48.6961
2023-04-08T11:54:37.705Z,48.5853
2023-04-08T11:55:39.985Z,48.3802
2023-04-08T11:56:42.300Z,48.2731
2023-04-08T11:57:42.257Z,48.2703
2023-04-08T11:58:44.614Z,48.3043
2023-04-08T11:59:44.650Z,48.3602
2023-04-08T12:00:44.694Z,48.4061
2023-04-08T12:01:47.229Z,48.3792
2023-04-08T12:02:47.260Z,48.3263
2023-04-08T12:03:47.453Z,48.2210
2023-04-08T12:04:47.695Z,48.1428
2023-04-08T12:05:49.911Z,47.9363
2023-04-08T12:06:52.173Z,47.7513
2023-04-08T12:07:52.237Z,47.6641
2023-04-08T12:08:52.304Z,47.6121
2023-04-08T12:09:52.282Z,47.5711
2023-04-08T12:10:52.402Z,47.0252
2023-04-08T12:11:52.391Z,46.8372
2023-04-08T12:12:54.681Z,46.8400
2023-04-08T12:13:57.058Z,46.9027
2023-04-08T12:14:57.081Z,46.9996
2023-04-08T12:15:59.507Z,47.0745
2023-04-08T12:16:59.556Z,47.1445
2023-04-08T12:17:59.656Z,47.0945
2023-04-08T12:19:01.998Z,47.0197
2023-04-08T12:20:01.999Z,47.0638
2023-04-08T12:21:04.321Z,47.1061
2023-04-08T12:22:06.690Z,47.1090
2023-04-08T12:23:06.750Z,46.7694
2023-04-08T12:24:09.184Z,46.8060
2023-04-08T12:25:09.274Z,46.9611
2023-04-08T12:26:11.656Z,47.1727
2023-04-08T12:27:11.781Z,47.4290